sensor_id;sensor_type;location;lat;lon;timestamp;P1;durP1;ratioP1;P2;durP2;ratioP2
53519;SDS011;39397;53.204;5.778;2022-12-01T00:00:32;68.80;;;35.45;;
53519;SDS011;39397;53.204;5.778;2022-12-01T00:02:57;62.83;;;35.25;;
53519;SDS011;39397;53.204;5.778;2022-12-01T00:05:23;72.07;;;35.28;;
53519;SDS011;39397;53.204;5.778;2022-12-01T00:07:49;75.05;;;37.30;;
53519;SDS011;39397;53.204;5.778;2022-12-01T00:10:14;73.53;;;37.80;;
53519;SDS011;39397;53.204;5.778;2022-12-01T00:12:50;68.55;;;36.90;;
53519;SDS011;39397;53.204;5.778;2022-12-01T00:15:16;66.45;;;34.80;;
53519;SDS011;39397;53.204;5.778;2022-12-01T00:17:42;69.55;;;37.88;;
53519;SDS011;39397;53.204;5.778;2022-12-01T00:20:09;67.97;;;36.38;;
53519;SDS011;39397;53.204;5.778;2022-12-01T00:22:36;69.97;;;37.83;;
53519;SDS011;39397;53.204;5.778;2022-12-01T00:25:03;69.55;;;37.42;;
53519;SDS011;39397;53.204;5.778;2022-12-01T00:27:29;69.68;;;37.03;;
53519;SDS011;39397;53.204;5.778;2022-12-01T00:29:54;70.53;;;36.95;;
53519;SDS011;39397;53.204;5.778;2022-12-01T00:32:20;73.72;;;37.50;;
53519;SDS011;39397;53.204;5.778;2022-12-01T00:34:46;64.95;;;36.25;;
53519;SDS011;39397;53.204;5.778;2022-12-01T00:37:11;70.35;;;36.85;;
53519;SDS011;39397;53.204;5.778;2022-12-01T00:39:37;73.28;;;36.83;;
53519;SDS011;39397;53.204;5.778;2022-12-01T00:42:02;78.30;;;39.13;;
53519;SDS011;39397;53.204;5.778;2022-12-01T00:44:28;68.55;;;37.55;;
53519;SDS011;39397;53.204;5.778;2022-12-01T00:46:54;73.30;;;38.10;;
53519;SDS011;39397;53.204;5.778;2022-12-01T00:49:19;72.03;;;37.63;;
53519;SDS011;39397;53.204;5.778;2022-12-01T00:51:45;70.13;;;38.47;;
53519;SDS011;39397;53.204;5.778;2022-12-01T00:54:11;77.72;;;38.05;;
53519;SDS011;39397;53.204;5.778;2022-12-01T00:56:37;77.30;;;38.30;;
53519;SDS011;39397;53.204;5.778;2022-12-01T00:59:02;80.03;;;37.92;;
53519;SDS011;39397;53.204;5.778;2022-12-01T01:01:28;74.38;;;37.60;;
53519;SDS011;39397;53.204;5.778;2022-12-01T01:03:53;71.07;;;37.20;;
53519;SDS011;39397;53.204;5.778;2022-12-01T01:06:19;81.43;;;38.67;;
53519;SDS011;39397;53.204;5.778;2022-12-01T01:08:45;78.00;;;37.83;;
53519;SDS011;39397;53.204;5.778;2022-12-01T01:11:10;84.40;;;37.70;;
53519;SDS011;39397;53.204;5.778;2022-12-01T01:13:36;84.95;;;41.30;;
53519;SDS011;39397;53.204;5.778;2022-12-01T01:16:04;87.93;;;41.78;;
53519;SDS011;39397;53.204;5.778;2022-12-01T01:18:32;77.45;;;38.95;;
53519;SDS011;39397;53.204;5.778;2022-12-01T01:20:58;76.28;;;37.42;;
53519;SDS011;39397;53.204;5.778;2022-12-01T01:23:28;78.60;;;38.03;;
53519;SDS011;39397;53.204;5.778;2022-12-01T01:26:28;79.28;;;39.65;;
53519;SDS011;39397;53.204;5.778;2022-12-01T01:28:49;82.05;;;39.83;;
53519;SDS011;39397;53.204;5.778;2022-12-01T01:31:16;81.25;;;39.40;;
53519;SDS011;39397;53.204;5.778;2022-12-01T01:33:44;80.70;;;38.47;;
53519;SDS011;39397;53.204;5.778;2022-12-01T01:36:10;81.45;;;39.80;;
53519;SDS011;39397;53.204;5.778;2022-12-01T01:38:36;80.28;;;39.00;;
53519;SDS011;39397;53.204;5.778;2022-12-01T01:41:02;89.15;;;40.97;;
53519;SDS011;39397;53.204;5.778;2022-12-01T01:43:45;85.43;;;40.90;;
53519;SDS011;39397;53.204;5.778;2022-12-01T01:48:50;72.20;;;37.15;;
53519;SDS011;39397;53.204;5.778;2022-12-01T01:51:40;76.63;;;37.38;;
53519;SDS011;39397;53.204;5.778;2022-12-01T01:54:14;81.43;;;40.72;;
53519;SDS011;39397;53.204;5.778;2022-12-01T01:56:44;82.97;;;38.95;;
53519;SDS011;39397;53.204;5.778;2022-12-01T01:59:15;87.75;;;40.95;;
53519;SDS011;39397;53.204;5.778;2022-12-01T02:01:46;85.40;;;39.45;;
53519;SDS011;39397;53.204;5.778;2022-12-01T02:04:14;90.95;;;39.97;;
53519;SDS011;39397;53.204;5.778;2022-12-01T02:06:40;79.55;;;37.95;;
53519;SDS011;39397;53.204;5.778;2022-12-01T02:09:08;75.90;;;36.58;;
53519;SDS011;39397;53.204;5.778;2022-12-01T02:14:29;87.50;;;40.70;;
53519;SDS011;39397;53.204;5.778;2022-12-01T02:17:16;78.75;;;36.63;;
53519;SDS011;39397;53.204;5.778;2022-12-01T02:28:25;80.97;;;36.97;;
53519;SDS011;39397;53.204;5.778;2022-12-01T02:39:08;98.68;;;40.28;;
53519;SDS011;39397;53.204;5.778;2022-12-01T02:41:44;88.63;;;38.85;;
53519;SDS011;39397;53.204;5.778;2022-12-01T02:44:23;82.85;;;36.95;;
53519;SDS011;39397;53.204;5.778;2022-12-01T02:47:13;82.63;;;38.90;;
53519;SDS011;39397;53.204;5.778;2022-12-01T02:49:42;89.93;;;40.03;;
53519;SDS011;39397;53.204;5.778;2022-12-01T02:52:12;97.47;;;42.65;;
53519;SDS011;39397;53.204;5.778;2022-12-01T02:54:40;88.70;;;40.83;;
53519;SDS011;39397;53.204;5.778;2022-12-01T02:57:11;89.47;;;39.55;;
53519;SDS011;39397;53.204;5.778;2022-12-01T02:59:38;89.28;;;38.88;;
53519;SDS011;39397;53.204;5.778;2022-12-01T03:05:27;85.05;;;37.88;;
53519;SDS011;39397;53.204;5.778;2022-12-01T03:11:11;65.47;;;34.08;;
53519;SDS011;39397;53.204;5.778;2022-12-01T03:16:53;83.60;;;38.28;;
53519;SDS011;39397;53.204;5.778;2022-12-01T03:21:58;79.18;;;36.83;;
53519;SDS011;39397;53.204;5.778;2022-12-01T03:24:29;80.30;;;38.38;;
53519;SDS011;39397;53.204;5.778;2022-12-01T03:26:57;83.40;;;37.78;;
53519;SDS011;39397;53.204;5.778;2022-12-01T03:29:30;86.55;;;39.47;;
53519;SDS011;39397;53.204;5.778;2022-12-01T03:32:14;81.10;;;38.75;;
53519;SDS011;39397;53.204;5.778;2022-12-01T03:35:03;83.53;;;37.58;;
53519;SDS011;39397;53.204;5.778;2022-12-01T03:37:35;82.15;;;37.45;;
53519;SDS011;39397;53.204;5.778;2022-12-01T03:40:23;84.82;;;36.47;;
53519;SDS011;39397;53.204;5.778;2022-12-01T03:42:55;85.72;;;38.55;;
53519;SDS011;39397;53.204;5.778;2022-12-01T03:45:35;85.10;;;38.00;;
53519;SDS011;39397;53.204;5.778;2022-12-01T03:48:09;85.45;;;37.13;;
53519;SDS011;39397;53.204;5.778;2022-12-01T03:50:37;93.75;;;40.75;;
53519;SDS011;39397;53.204;5.778;2022-12-01T03:53:26;82.40;;;35.35;;
53519;SDS011;39397;53.204;5.778;2022-12-01T03:56:01;86.22;;;39.35;;
53519;SDS011;39397;53.204;5.778;2022-12-01T03:58:35;86.40;;;38.15;;
53519;SDS011;39397;53.204;5.778;2022-12-01T04:01:05;93.32;;;40.22;;
53519;SDS011;39397;53.204;5.778;2022-12-01T04:03:32;85.25;;;38.05;;
53519;SDS011;39397;53.204;5.778;2022-12-01T04:05:58;89.57;;;41.17;;
53519;SDS011;39397;53.204;5.778;2022-12-01T04:08:23;83.80;;;38.42;;
53519;SDS011;39397;53.204;5.778;2022-12-01T04:10:49;87.05;;;38.88;;
53519;SDS011;39397;53.204;5.778;2022-12-01T04:13:15;92.93;;;41.45;;
53519;SDS011;39397;53.204;5.778;2022-12-01T04:15:47;84.40;;;37.55;;
53519;SDS011;39397;53.204;5.778;2022-12-01T04:18:17;92.82;;;38.83;;
53519;SDS011;39397;53.204;5.778;2022-12-01T04:20:47;87.43;;;39.15;;
53519;SDS011;39397;53.204;5.778;2022-12-01T04:23:13;84.95;;;38.47;;
53519;SDS011;39397;53.204;5.778;2022-12-01T04:26:03;95.18;;;41.78;;
53519;SDS011;39397;53.204;5.778;2022-12-01T04:28:29;75.30;;;35.25;;
53519;SDS011;39397;53.204;5.778;2022-12-01T04:30:54;84.07;;;38.90;;
53519;SDS011;39397;53.204;5.778;2022-12-01T04:33:20;85.60;;;40.13;;
53519;SDS011;39397;53.204;5.778;2022-12-01T04:35:54;84.93;;;38.47;;
53519;SDS011;39397;53.204;5.778;2022-12-01T04:38:21;87.07;;;39.03;;
53519;SDS011;39397;53.204;5.778;2022-12-01T04:40:47;80.93;;;39.05;;
53519;SDS011;39397;53.204;5.778;2022-12-01T04:43:12;99.10;;;42.42;;
53519;SDS011;39397;53.204;5.778;2022-12-01T04:45:38;90.15;;;39.63;;
53519;SDS011;39397;53.204;5.778;2022-12-01T04:48:04;84.00;;;38.67;;
53519;SDS011;39397;53.204;5.778;2022-12-01T04:50:29;94.95;;;41.63;;
53519;SDS011;39397;53.204;5.778;2022-12-01T04:52:55;93.97;;;42.30;;
53519;SDS011;39397;53.204;5.778;2022-12-01T04:55:21;92.25;;;41.38;;
53519;SDS011;39397;53.204;5.778;2022-12-01T04:57:47;92.50;;;41.08;;
53519;SDS011;39397;53.204;5.778;2022-12-01T05:00:13;88.47;;;40.85;;
53519;SDS011;39397;53.204;5.778;2022-12-01T05:02:39;92.88;;;40.10;;
53519;SDS011;39397;53.204;5.778;2022-12-01T05:05:08;99.00;;;42.53;;
53519;SDS011;39397;53.204;5.778;2022-12-01T05:07:34;98.75;;;40.40;;
53519;SDS011;39397;53.204;5.778;2022-12-01T05:10:00;98.43;;;43.42;;
53519;SDS011;39397;53.204;5.778;2022-12-01T05:12:25;86.25;;;41.30;;
53519;SDS011;39397;53.204;5.778;2022-12-01T05:14:51;90.38;;;41.83;;
53519;SDS011;39397;53.204;5.778;2022-12-01T05:17:17;87.72;;;38.92;;
53519;SDS011;39397;53.204;5.778;2022-12-01T05:19:42;88.95;;;40.50;;
53519;SDS011;39397;53.204;5.778;2022-12-01T05:22:27;97.25;;;41.47;;
53519;SDS011;39397;53.204;5.778;2022-12-01T05:24:52;85.07;;;40.42;;
53519;SDS011;39397;53.204;5.778;2022-12-01T05:27:18;100.97;;;42.55;;
53519;SDS011;39397;53.204;5.778;2022-12-01T05:29:44;95.65;;;40.78;;
53519;SDS011;39397;53.204;5.778;2022-12-01T05:32:09;83.13;;;39.40;;
53519;SDS011;39397;53.204;5.778;2022-12-01T05:34:35;97.35;;;41.30;;
53519;SDS011;39397;53.204;5.778;2022-12-01T05:37:00;81.60;;;38.88;;
53519;SDS011;39397;53.204;5.778;2022-12-01T05:39:26;99.30;;;42.55;;
53519;SDS011;39397;53.204;5.778;2022-12-01T05:41:52;93.28;;;41.58;;
53519;SDS011;39397;53.204;5.778;2022-12-01T05:44:18;94.00;;;41.28;;
53519;SDS011;39397;53.204;5.778;2022-12-01T05:46:43;91.20;;;40.85;;
53519;SDS011;39397;53.204;5.778;2022-12-01T05:49:09;90.10;;;41.53;;
53519;SDS011;39397;53.204;5.778;2022-12-01T05:51:35;87.45;;;41.17;;
53519;SDS011;39397;53.204;5.778;2022-12-01T05:54:00;94.00;;;45.28;;
53519;SDS011;39397;53.204;5.778;2022-12-01T05:56:26;90.65;;;42.45;;
53519;SDS011;39397;53.204;5.778;2022-12-01T05:58:52;91.93;;;41.40;;
53519;SDS011;39397;53.204;5.778;2022-12-01T06:01:18;93.47;;;42.35;;
53519;SDS011;39397;53.204;5.778;2022-12-01T06:03:43;95.32;;;42.78;;
53519;SDS011;39397;53.204;5.778;2022-12-01T06:06:09;84.60;;;41.92;;
53519;SDS011;39397;53.204;5.778;2022-12-01T06:08:35;95.25;;;42.70;;
53519;SDS011;39397;53.204;5.778;2022-12-01T06:11:00;98.32;;;42.40;;
53519;SDS011;39397;53.204;5.778;2022-12-01T06:13:26;96.70;;;42.22;;
53519;SDS011;39397;53.204;5.778;2022-12-01T06:15:56;93.65;;;40.78;;
53519;SDS011;39397;53.204;5.778;2022-12-01T06:18:28;100.00;;;42.55;;
53519;SDS011;39397;53.204;5.778;2022-12-01T06:20:57;93.13;;;40.75;;
53519;SDS011;39397;53.204;5.778;2022-12-01T06:23:23;87.95;;;38.22;;
53519;SDS011;39397;53.204;5.778;2022-12-01T06:25:49;79.53;;;36.90;;
53519;SDS011;39397;53.204;5.778;2022-12-01T06:28:14;80.15;;;36.22;;
53519;SDS011;39397;53.204;5.778;2022-12-01T06:30:41;79.93;;;39.05;;
53519;SDS011;39397;53.204;5.778;2022-12-01T06:33:07;84.95;;;37.13;;
53519;SDS011;39397;53.204;5.778;2022-12-01T06:35:33;84.25;;;36.08;;
53519;SDS011;39397;53.204;5.778;2022-12-01T06:37:59;81.25;;;35.47;;
53519;SDS011;39397;53.204;5.778;2022-12-01T06:40:25;90.95;;;39.25;;
53519;SDS011;39397;53.204;5.778;2022-12-01T06:42:51;93.55;;;39.13;;
53519;SDS011;39397;53.204;5.778;2022-12-01T06:45:17;98.35;;;39.35;;
53519;SDS011;39397;53.204;5.778;2022-12-01T06:47:43;97.35;;;39.85;;
53519;SDS011;39397;53.204;5.778;2022-12-01T06:50:08;95.68;;;38.17;;
53519;SDS011;39397;53.204;5.778;2022-12-01T06:52:36;100.43;;;40.28;;
53519;SDS011;39397;53.204;5.778;2022-12-01T06:55:02;90.40;;;36.72;;
53519;SDS011;39397;53.204;5.778;2022-12-01T06:57:29;87.75;;;37.60;;
53519;SDS011;39397;53.204;5.778;2022-12-01T06:59:54;94.05;;;36.97;;
53519;SDS011;39397;53.204;5.778;2022-12-01T07:02:20;93.38;;;37.92;;
53519;SDS011;39397;53.204;5.778;2022-12-01T07:04:46;102.55;;;37.55;;
53519;SDS011;39397;53.204;5.778;2022-12-01T07:07:11;100.60;;;37.33;;
53519;SDS011;39397;53.204;5.778;2022-12-01T07:09:37;97.65;;;38.17;;
53519;SDS011;39397;53.204;5.778;2022-12-01T07:12:03;100.25;;;36.70;;
53519;SDS011;39397;53.204;5.778;2022-12-01T07:14:29;94.07;;;36.50;;
53519;SDS011;39397;53.204;5.778;2022-12-01T07:16:56;102.50;;;40.70;;
53519;SDS011;39397;53.204;5.778;2022-12-01T07:19:22;97.80;;;37.85;;
53519;SDS011;39397;53.204;5.778;2022-12-01T07:21:47;103.70;;;37.80;;
53519;SDS011;39397;53.204;5.778;2022-12-01T07:24:13;95.53;;;36.35;;
53519;SDS011;39397;53.204;5.778;2022-12-01T07:26:39;97.63;;;36.72;;
53519;SDS011;39397;53.204;5.778;2022-12-01T07:29:05;97.00;;;36.25;;
53519;SDS011;39397;53.204;5.778;2022-12-01T07:31:31;100.07;;;37.92;;
53519;SDS011;39397;53.204;5.778;2022-12-01T07:33:57;102.40;;;40.13;;
53519;SDS011;39397;53.204;5.778;2022-12-01T07:36:23;100.88;;;38.60;;
53519;SDS011;39397;53.204;5.778;2022-12-01T07:38:48;90.47;;;35.75;;
53519;SDS011;39397;53.204;5.778;2022-12-01T07:41:16;94.97;;;34.47;;
53519;SDS011;39397;53.204;5.778;2022-12-01T07:43:46;87.90;;;36.80;;
53519;SDS011;39397;53.204;5.778;2022-12-01T07:48:45;89.75;;;35.28;;
53519;SDS011;39397;53.204;5.778;2022-12-01T07:51:12;93.05;;;38.63;;
53519;SDS011;39397;53.204;5.778;2022-12-01T07:53:42;102.13;;;38.83;;
53519;SDS011;39397;53.204;5.778;2022-12-01T07:56:09;96.05;;;38.08;;
53519;SDS011;39397;53.204;5.778;2022-12-01T07:58:35;94.75;;;34.70;;
53519;SDS011;39397;53.204;5.778;2022-12-01T08:01:08;91.22;;;37.05;;
53519;SDS011;39397;53.204;5.778;2022-12-01T08:03:38;93.25;;;35.97;;
53519;SDS011;39397;53.204;5.778;2022-12-01T08:06:04;77.43;;;34.92;;
53519;SDS011;39397;53.204;5.778;2022-12-01T08:08:32;88.65;;;37.80;;
53519;SDS011;39397;53.204;5.778;2022-12-01T08:11:00;84.93;;;37.35;;
53519;SDS011;39397;53.204;5.778;2022-12-01T08:13:27;85.20;;;37.75;;
53519;SDS011;39397;53.204;5.778;2022-12-01T08:15:53;72.20;;;34.80;;
53519;SDS011;39397;53.204;5.778;2022-12-01T08:18:19;59.00;;;30.50;;
53519;SDS011;39397;53.204;5.778;2022-12-01T08:20:44;44.95;;;24.90;;
53519;SDS011;39397;53.204;5.778;2022-12-01T08:23:10;53.70;;;26.80;;
53519;SDS011;39397;53.204;5.778;2022-12-01T08:25:36;47.17;;;24.98;;
53519;SDS011;39397;53.204;5.778;2022-12-01T08:28:01;55.47;;;27.20;;
53519;SDS011;39397;53.204;5.778;2022-12-01T08:30:27;53.00;;;25.98;;
53519;SDS011;39397;53.204;5.778;2022-12-01T08:32:53;53.35;;;27.10;;
53519;SDS011;39397;53.204;5.778;2022-12-01T08:35:20;54.30;;;27.45;;
53519;SDS011;39397;53.204;5.778;2022-12-01T08:37:46;49.67;;;25.48;;
53519;SDS011;39397;53.204;5.778;2022-12-01T08:40:11;56.17;;;24.90;;
53519;SDS011;39397;53.204;5.778;2022-12-01T08:42:37;48.83;;;26.15;;
53519;SDS011;39397;53.204;5.778;2022-12-01T08:45:03;52.85;;;27.77;;
53519;SDS011;39397;53.204;5.778;2022-12-01T08:47:29;55.38;;;26.70;;
53519;SDS011;39397;53.204;5.778;2022-12-01T08:49:55;54.50;;;26.95;;
53519;SDS011;39397;53.204;5.778;2022-12-01T08:52:21;50.08;;;25.33;;
53519;SDS011;39397;53.204;5.778;2022-12-01T08:54:47;54.40;;;26.60;;
53519;SDS011;39397;53.204;5.778;2022-12-01T08:57:12;50.28;;;25.20;;
53519;SDS011;39397;53.204;5.778;2022-12-01T08:59:38;44.13;;;23.15;;
53519;SDS011;39397;53.204;5.778;2022-12-01T09:02:04;46.28;;;26.33;;
53519;SDS011;39397;53.204;5.778;2022-12-01T09:04:30;48.80;;;25.90;;
53519;SDS011;39397;53.204;5.778;2022-12-01T09:06:56;48.88;;;26.02;;
53519;SDS011;39397;53.204;5.778;2022-12-01T09:09:26;47.38;;;23.30;;
53519;SDS011;39397;53.204;5.778;2022-12-01T09:11:53;42.90;;;23.05;;
53519;SDS011;39397;53.204;5.778;2022-12-01T09:14:19;41.13;;;22.02;;
53519;SDS011;39397;53.204;5.778;2022-12-01T09:16:47;35.90;;;20.75;;
53519;SDS011;39397;53.204;5.778;2022-12-01T09:19:14;34.28;;;19.83;;
53519;SDS011;39397;53.204;5.778;2022-12-01T09:21:42;32.58;;;19.30;;
53519;SDS011;39397;53.204;5.778;2022-12-01T09:24:09;32.80;;;18.73;;
53519;SDS011;39397;53.204;5.778;2022-12-01T09:26:39;32.67;;;20.50;;
53519;SDS011;39397;53.204;5.778;2022-12-01T09:29:11;28.80;;;16.98;;
53519;SDS011;39397;53.204;5.778;2022-12-01T09:31:37;32.58;;;18.83;;
53519;SDS011;39397;53.204;5.778;2022-12-01T09:34:05;31.77;;;18.58;;
53519;SDS011;39397;53.204;5.778;2022-12-01T09:36:32;27.23;;;16.10;;
53519;SDS011;39397;53.204;5.778;2022-12-01T09:38:59;23.88;;;14.90;;
53519;SDS011;39397;53.204;5.778;2022-12-01T09:41:32;26.23;;;15.75;;
53519;SDS011;39397;53.204;5.778;2022-12-01T09:46:48;22.88;;;14.68;;
53519;SDS011;39397;53.204;5.778;2022-12-01T09:49:24;19.27;;;13.20;;
53519;SDS011;39397;53.204;5.778;2022-12-01T09:52:00;20.33;;;12.85;;
53519;SDS011;39397;53.204;5.778;2022-12-01T09:54:25;18.73;;;12.02;;
53519;SDS011;39397;53.204;5.778;2022-12-01T09:56:53;20.63;;;13.10;;
53519;SDS011;39397;53.204;5.778;2022-12-01T09:59:24;20.90;;;11.57;;
53519;SDS011;39397;53.204;5.778;2022-12-01T10:01:57;15.63;;;10.52;;
53519;SDS011;39397;53.204;5.778;2022-12-01T10:04:36;19.50;;;11.43;;
53519;SDS011;39397;53.204;5.778;2022-12-01T10:07:16;19.77;;;11.52;;
53519;SDS011;39397;53.204;5.778;2022-12-01T10:10:04;18.35;;;11.23;;
53519;SDS011;39397;53.204;5.778;2022-12-01T10:12:35;17.20;;;11.05;;
53519;SDS011;39397;53.204;5.778;2022-12-01T10:17:58;14.82;;;10.10;;
53519;SDS011;39397;53.204;5.778;2022-12-01T10:20:52;17.10;;;10.50;;
53519;SDS011;39397;53.204;5.778;2022-12-01T10:26:35;17.73;;;10.87;;
53519;SDS011;39397;53.204;5.778;2022-12-01T10:29:40;17.65;;;10.23;;
53519;SDS011;39397;53.204;5.778;2022-12-01T10:34:50;16.25;;;10.70;;
53519;SDS011;39397;53.204;5.778;2022-12-01T10:37:19;16.85;;;10.70;;
53519;SDS011;39397;53.204;5.778;2022-12-01T10:39:48;17.23;;;12.05;;
53519;SDS011;39397;53.204;5.778;2022-12-01T10:42:18;17.10;;;10.52;;
53519;SDS011;39397;53.204;5.778;2022-12-01T10:45:08;18.23;;;11.60;;
53519;SDS011;39397;53.204;5.778;2022-12-01T10:50:44;17.05;;;10.15;;
53519;SDS011;39397;53.204;5.778;2022-12-01T10:56:04;17.98;;;10.50;;
53519;SDS011;39397;53.204;5.778;2022-12-01T10:58:44;12.98;;;8.82;;
53519;SDS011;39397;53.204;5.778;2022-12-01T11:01:19;15.75;;;8.88;;
53519;SDS011;39397;53.204;5.778;2022-12-01T11:04:00;15.38;;;9.30;;
53519;SDS011;39397;53.204;5.778;2022-12-01T11:06:49;14.23;;;8.88;;
53519;SDS011;39397;53.204;5.778;2022-12-01T11:09:17;13.48;;;9.07;;
53519;SDS011;39397;53.204;5.778;2022-12-01T11:11:45;15.15;;;9.32;;
53519;SDS011;39397;53.204;5.778;2022-12-01T11:14:19;16.60;;;9.00;;
53519;SDS011;39397;53.204;5.778;2022-12-01T11:16:48;15.02;;;9.02;;
53519;SDS011;39397;53.204;5.778;2022-12-01T11:19:18;14.38;;;9.10;;
53519;SDS011;39397;53.204;5.778;2022-12-01T11:21:48;13.57;;;8.73;;
53519;SDS011;39397;53.204;5.778;2022-12-01T11:26:56;16.83;;;8.85;;
53519;SDS011;39397;53.204;5.778;2022-12-01T11:29:35;14.85;;;8.52;;
53519;SDS011;39397;53.204;5.778;2022-12-01T11:32:11;12.57;;;8.45;;
53519;SDS011;39397;53.204;5.778;2022-12-01T11:34:41;12.95;;;8.05;;
53519;SDS011;39397;53.204;5.778;2022-12-01T11:37:17;13.95;;;8.80;;
53519;SDS011;39397;53.204;5.778;2022-12-01T11:39:45;15.50;;;9.90;;
53519;SDS011;39397;53.204;5.778;2022-12-01T11:44:37;15.65;;;8.95;;
53519;SDS011;39397;53.204;5.778;2022-12-01T11:47:15;14.65;;;8.52;;
53519;SDS011;39397;53.204;5.778;2022-12-01T11:49:44;15.68;;;9.50;;
53519;SDS011;39397;53.204;5.778;2022-12-01T11:54:59;14.70;;;9.45;;
53519;SDS011;39397;53.204;5.778;2022-12-01T11:57:34;16.52;;;9.77;;
53519;SDS011;39397;53.204;5.778;2022-12-01T12:00:00;15.25;;;9.18;;
53519;SDS011;39397;53.204;5.778;2022-12-01T12:08:09;15.65;;;8.35;;
53519;SDS011;39397;53.204;5.778;2022-12-01T12:34:47;9.68;;;6.70;;
53519;SDS011;39397;53.204;5.778;2022-12-01T12:37:47;12.53;;;7.77;;
53519;SDS011;39397;53.204;5.778;2022-12-01T12:40:19;10.70;;;7.53;;
53519;SDS011;39397;53.204;5.778;2022-12-01T12:45:38;12.90;;;7.47;;
53519;SDS011;39397;53.204;5.778;2022-12-01T12:48:10;13.02;;;8.05;;
53519;SDS011;39397;53.204;5.778;2022-12-01T12:53:43;11.95;;;7.40;;
53519;SDS011;39397;53.204;5.778;2022-12-01T12:58:59;12.43;;;7.78;;
53519;SDS011;39397;53.204;5.778;2022-12-01T13:01:33;10.93;;;7.25;;
53519;SDS011;39397;53.204;5.778;2022-12-01T13:04:05;11.10;;;7.75;;
53519;SDS011;39397;53.204;5.778;2022-12-01T13:06:39;13.95;;;8.80;;
53519;SDS011;39397;53.204;5.778;2022-12-01T13:09:52;11.50;;;8.05;;
53519;SDS011;39397;53.204;5.778;2022-12-01T13:12:22;12.40;;;7.50;;
53519;SDS011;39397;53.204;5.778;2022-12-01T13:15:00;12.38;;;7.60;;
53519;SDS011;39397;53.204;5.778;2022-12-01T13:17:39;12.68;;;7.93;;
53519;SDS011;39397;53.204;5.778;2022-12-01T13:20:11;12.30;;;8.18;;
53519;SDS011;39397;53.204;5.778;2022-12-01T13:22:39;12.77;;;7.82;;
53519;SDS011;39397;53.204;5.778;2022-12-01T13:25:05;12.88;;;8.13;;
53519;SDS011;39397;53.204;5.778;2022-12-01T13:27:33;12.90;;;7.55;;
53519;SDS011;39397;53.204;5.778;2022-12-01T13:30:01;13.05;;;7.97;;
53519;SDS011;39397;53.204;5.778;2022-12-01T13:34:56;12.48;;;8.73;;
53519;SDS011;39397;53.204;5.778;2022-12-01T13:37:35;13.43;;;8.93;;
53519;SDS011;39397;53.204;5.778;2022-12-01T13:45:23;12.00;;;7.43;;
53519;SDS011;39397;53.204;5.778;2022-12-01T13:47:50;12.73;;;8.43;;
53519;SDS011;39397;53.204;5.778;2022-12-01T14:03:53;12.40;;;8.20;;
53519;SDS011;39397;53.204;5.778;2022-12-01T14:06:47;12.95;;;8.60;;
53519;SDS011;39397;53.204;5.778;2022-12-01T14:09:17;14.13;;;9.30;;
53519;SDS011;39397;53.204;5.778;2022-12-01T14:11:57;14.88;;;10.27;;
53519;SDS011;39397;53.204;5.778;2022-12-01T14:14:33;14.35;;;9.48;;
53519;SDS011;39397;53.204;5.778;2022-12-01T14:17:01;13.90;;;9.10;;
53519;SDS011;39397;53.204;5.778;2022-12-01T14:25:03;17.75;;;9.57;;
53519;SDS011;39397;53.204;5.778;2022-12-01T14:27:52;13.00;;;9.30;;
53519;SDS011;39397;53.204;5.778;2022-12-01T14:33:55;13.38;;;8.73;;
53519;SDS011;39397;53.204;5.778;2022-12-01T14:41:50;14.80;;;9.33;;
53519;SDS011;39397;53.204;5.778;2022-12-01T14:47:22;12.18;;;8.32;;
53519;SDS011;39397;53.204;5.778;2022-12-01T14:50:10;14.10;;;9.45;;
53519;SDS011;39397;53.204;5.778;2022-12-01T14:52:45;14.68;;;8.93;;
53519;SDS011;39397;53.204;5.778;2022-12-01T14:55:15;15.20;;;9.13;;
53519;SDS011;39397;53.204;5.778;2022-12-01T14:58:11;16.30;;;10.00;;
53519;SDS011;39397;53.204;5.778;2022-12-01T15:00:47;13.90;;;8.93;;
53519;SDS011;39397;53.204;5.778;2022-12-01T15:03:23;14.60;;;9.40;;
53519;SDS011;39397;53.204;5.778;2022-12-01T15:05:51;16.33;;;9.85;;
53519;SDS011;39397;53.204;5.778;2022-12-01T15:08:21;14.75;;;9.43;;
53519;SDS011;39397;53.204;5.778;2022-12-01T15:13:23;14.75;;;10.07;;
53519;SDS011;39397;53.204;5.778;2022-12-01T15:15:53;14.05;;;9.15;;
53519;SDS011;39397;53.204;5.778;2022-12-01T15:18:29;13.50;;;9.30;;
53519;SDS011;39397;53.204;5.778;2022-12-01T15:23:56;12.82;;;9.13;;
53519;SDS011;39397;53.204;5.778;2022-12-01T15:26:24;13.20;;;9.50;;
53519;SDS011;39397;53.204;5.778;2022-12-01T15:31:36;15.18;;;9.98;;
53519;SDS011;39397;53.204;5.778;2022-12-01T15:34:02;14.25;;;9.52;;
53519;SDS011;39397;53.204;5.778;2022-12-01T15:36:28;17.50;;;10.18;;
53519;SDS011;39397;53.204;5.778;2022-12-01T15:38:54;16.83;;;10.40;;
53519;SDS011;39397;53.204;5.778;2022-12-01T15:41:20;15.98;;;10.27;;
53519;SDS011;39397;53.204;5.778;2022-12-01T15:43:57;17.20;;;11.13;;
53519;SDS011;39397;53.204;5.778;2022-12-01T15:46:27;18.05;;;11.80;;
53519;SDS011;39397;53.204;5.778;2022-12-01T15:49:07;16.77;;;11.27;;
53519;SDS011;39397;53.204;5.778;2022-12-01T15:51:40;18.50;;;12.23;;
53519;SDS011;39397;53.204;5.778;2022-12-01T15:54:12;21.70;;;12.60;;
53519;SDS011;39397;53.204;5.778;2022-12-01T15:56:45;25.90;;;14.43;;
53519;SDS011;39397;53.204;5.778;2022-12-01T16:01:48;26.38;;;16.40;;
53519;SDS011;39397;53.204;5.778;2022-12-01T16:04:20;23.90;;;15.50;;
53519;SDS011;39397;53.204;5.778;2022-12-01T16:06:59;29.15;;;17.90;;
53519;SDS011;39397;53.204;5.778;2022-12-01T16:09:34;29.13;;;17.08;;
53519;SDS011;39397;53.204;5.778;2022-12-01T16:12:04;28.45;;;16.75;;
53519;SDS011;39397;53.204;5.778;2022-12-01T16:14:33;29.08;;;17.67;;
53519;SDS011;39397;53.204;5.778;2022-12-01T16:17:00;34.05;;;20.63;;
53519;SDS011;39397;53.204;5.778;2022-12-01T16:19:27;35.80;;;21.98;;
53519;SDS011;39397;53.204;5.778;2022-12-01T16:21:58;42.15;;;23.42;;
53519;SDS011;39397;53.204;5.778;2022-12-01T16:24:33;42.65;;;25.55;;
53519;SDS011;39397;53.204;5.778;2022-12-01T16:29:27;43.03;;;25.42;;
53519;SDS011;39397;53.204;5.778;2022-12-01T16:32:08;47.67;;;27.83;;
53519;SDS011;39397;53.204;5.778;2022-12-01T16:34:42;43.08;;;25.92;;
53519;SDS011;39397;53.204;5.778;2022-12-01T16:37:11;50.03;;;27.52;;
53519;SDS011;39397;53.204;5.778;2022-12-01T16:39:37;47.50;;;27.38;;
53519;SDS011;39397;53.204;5.778;2022-12-01T16:42:03;45.35;;;26.17;;
53519;SDS011;39397;53.204;5.778;2022-12-01T16:44:29;50.85;;;28.55;;
53519;SDS011;39397;53.204;5.778;2022-12-01T16:46:54;51.03;;;27.88;;
53519;SDS011;39397;53.204;5.778;2022-12-01T16:49:20;48.80;;;27.30;;
53519;SDS011;39397;53.204;5.778;2022-12-01T16:51:46;48.72;;;28.85;;
53519;SDS011;39397;53.204;5.778;2022-12-01T16:54:11;52.67;;;28.52;;
53519;SDS011;39397;53.204;5.778;2022-12-01T16:56:37;48.78;;;29.25;;
53519;SDS011;39397;53.204;5.778;2022-12-01T16:59:03;45.05;;;27.63;;
53519;SDS011;39397;53.204;5.778;2022-12-01T17:01:29;51.85;;;29.23;;
53519;SDS011;39397;53.204;5.778;2022-12-01T17:03:55;52.60;;;29.52;;
53519;SDS011;39397;53.204;5.778;2022-12-01T17:06:20;51.85;;;29.63;;
53519;SDS011;39397;53.204;5.778;2022-12-01T17:08:47;48.67;;;29.02;;
53519;SDS011;39397;53.204;5.778;2022-12-01T17:11:13;49.63;;;29.35;;